Time;durP1;ratioP1;P1;durP2;ratioP2;P2;SDS_P1;SDS_P2;PMS_P1;PMS_P2;Temp;Humidity;BMP_temperature;BMP_pressure;BME280_temperature;BME280_humidity;BME280_pressure;Samples;Min_cycle;Max_cycle;Signal;HPM_P1;HPM_P2
2022/09/02 00:01:04;;;;;;;;;8.33;6.33;;;;;;;;5070123;28;45463;-78
2022/09/02 00:03:33;;;;;;;;;8.00;7.00;;;;;;;;5050691;28;47873;-76
2022/09/02 00:05:58;;;;;;;;;8.67;7.00;;;;;;;;5068501;27;45715;-77
2022/09/02 00:08:24;;;;;;;;;7.33;7.33;;;;;;;;5053608;28;45845;-78
2022/09/02 00:10:56;;;;;;;;;8.33;6.00;;;;;;;;5071970;27;45442;-78
2022/09/02 00:13:24;;;;;;;;;5.67;5.67;;;;;;;;5073072;27;45335;-77
2022/09/02 00:16:10;;;;;;;;;5.00;5.00;;;;;;;;5077366;27;45959;-77
2022/09/02 00:19:01;;;;;;;;;8.00;7.33;;;;;;;;5072011;27;44868;-78
2022/09/02 00:21:26;;;;;;;;;7.67;7.33;;;;;;;;5052963;27;47138;-76
2022/09/02 00:23:53;;;;;;;;;8.33;7.33;;;;;;;;5071144;27;46278;-76
2022/09/02 00:26:19;;;;;;;;;6.33;6.33;;;;;;;;5070032;27;45746;-76
2022/09/02 00:28:45;;;;;;;;;8.00;5.00;;;;;;;;5053055;28;45566;-76
2022/09/02 00:31:36;;;;;;;;;6.33;6.33;;;;;;;;5073014;27;45485;-77
2022/09/02 00:34:28;;;;;;;;;7.67;7.67;;;;;;;;5030087;28;46246;-77
2022/09/02 00:40:17;;;;;;;;;9.00;8.00;;;;;;;;5052799;27;45352;-78
2022/09/02 00:42:57;;;;;;;;;7.33;5.00;;;;;;;;5069851;27;46547;-77
2022/09/02 00:45:42;;;;;;;;;8.67;7.67;;;;;;;;5053588;28;46314;-76
2022/09/02 00:48:32;;;;;;;;;6.67;5.00;;;;;;;;5023901;28;45741;-78
2022/09/02 00:51:13;;;;;;;;;;;;;;;;;;;;;
2022/09/02 00:53:47;;;;;;;;;7.50;7.50;;;;;;;;5014012;28;73200;-76
2022/09/02 00:56:46;;;;;;;;;8.67;8.33;;;;;;;;5011581;28;45596;-77
2022/09/02 00:59:37;;;;;;;;;;;;;;;;;;;;;
2022/09/02 01:02:22;;;;;;;;;7.00;7.00;;;;;;;;5047531;28;66834;-76
2022/09/02 01:04:57;;;;;;;;;9.00;8.00;;;;;;;;5054497;28;45379;-77
2022/09/02 01:07:28;;;;;;;;;9.67;7.00;;;;;;;;5034263;28;46219;-78
2022/09/02 01:10:12;;;;;;;;;6.33;6.33;;;;;;;;5031447;28;45450;-78
2022/09/02 01:13:05;;;;;;;;;8.67;7.67;;;;;;;;5050040;28;45453;-78
2022/09/02 01:16:06;;;;;;;;;9.33;5.00;;;;;;;;5040009;28;45663;-77
2022/09/02 01:21:46;;;;;;;;;8.00;7.67;;;;;;;;5045980;28;45520;-77
2022/09/02 01:24:33;;;;;;;;;7.33;7.33;;;;;;;;5050544;28;45387;-78
2022/09/02 01:27:01;;;;;;;;;7.33;6.67;;;;;;;;5034654;28;46202;-76
2022/09/02 01:29:27;;;;;;;;;9.67;9.67;;;;;;;;5041040;28;45545;-77
2022/09/02 01:32:22;;;;;;;;;9.00;8.00;;;;;;;;5034242;28;45774;-78
2022/09/02 01:34:58;;;;;;;;;11.67;10.33;;;;;;;;5035426;28;45738;-77
2022/09/02 01:37:37;;;;;;;;;13.67;12.33;;;;;;;;5042708;28;45895;-76
2022/09/02 01:40:03;;;;;;;;;11.00;11.00;;;;;;;;5028994;28;45661;-76
2022/09/02 01:42:32;;;;;;;;;13.67;9.33;;;;;;;;5025955;28;45443;-77
2022/09/02 01:45:14;;;;;;;;;16.33;13.33;;;;;;;;5046097;28;45431;-77
2022/09/02 01:47:48;;;;;;;;;17.00;14.00;;;;;;;;5051526;28;45644;-76
2022/09/02 01:50:14;;;;;;;;;15.67;13.00;;;;;;;;5052729;28;46191;-77
2022/09/02 01:52:43;;;;;;;;;16.67;12.67;;;;;;;;5034239;28;45969;-78
2022/09/02 01:55:34;;;;;;;;;19.33;16.67;;;;;;;;5023382;28;45849;-78
2022/09/02 01:58:10;;;;;;;;;13.67;13.00;;;;;;;;5034863;28;45858;-79
2022/09/02 02:00:38;;;;;;;;;17.67;15.00;;;;;;;;5052609;28;46313;-77
2022/09/02 02:03:04;;;;;;;;;18.33;17.33;;;;;;;;5035250;28;45523;-76
2022/09/02 02:05:35;;;;;;;;;21.33;16.67;;;;;;;;5030284;28;45856;-77
2022/09/02 02:08:01;;;;;;;;;20.00;17.00;;;;;;;;5050429;28;45435;-77
2022/09/02 02:13:36;;;;;;;;;15.67;13.67;;;;;;;;5037310;28;45514;-78
2022/09/02 02:16:03;;;;;;;;;16.33;13.00;;;;;;;;5063104;28;45733;-77
2022/09/02 02:18:29;;;;;;;;;16.67;14.33;;;;;;;;5031722;28;45486;-77
2022/09/02 02:20:55;;;;;;;;;12.33;7.67;;;;;;;;5044049;28;45838;-76
2022/09/02 02:23:24;;;;;;;;;17.00;17.00;;;;;;;;5052364;28;45470;-77
2022/09/02 02:25:50;;;;;;;;;13.33;13.33;;;;;;;;5052565;28;45470;-77
2022/09/02 02:28:15;;;;;;;;;16.00;14.00;;;;;;;;5055028;28;45364;-77
2022/09/02 02:30:44;;;;;;;;;13.33;13.33;;;;;;;;5035413;28;45494;-77
2022/09/02 02:33:12;;;;;;;;;14.33;14.33;;;;;;;;5057092;28;45430;-77
2022/09/02 02:35:39;;;;;;;;;26.33;16.67;;;;;;;;5048264;28;45630;-78
2022/09/02 02:38:05;;;;;;;;;20.33;18.67;;;;;;;;5026644;28;46666;-76
2022/09/02 02:40:36;;;;;;;;;21.33;18.33;;;;;;;;5052307;28;46729;-77
2022/09/02 02:43:02;;;;;;;;;21.67;20.67;;;;;;;;5033562;28;45866;-78
2022/09/02 02:45:33;;;;;;;;;25.00;23.67;;;;;;;;5040294;28;45484;-79
2022/09/02 02:48:01;;;;;;;;;23.33;22.00;;;;;;;;5053410;28;45734;-76
2022/09/02 02:50:30;;;;;;;;;21.67;21.67;;;;;;;;5052305;28;46717;-77
2022/09/02 02:53:03;;;;;;;;;17.67;16.67;;;;;;;;5034193;28;45423;-78
2022/09/02 02:55:35;;;;;;;;;20.67;17.00;;;;;;;;5067057;27;45406;-77
2022/09/02 02:58:03;;;;;;;;;21.00;19.00;;;;;;;;5068419;27;45973;-78
2022/09/02 03:00:31;;;;;;;;;13.67;11.67;;;;;;;;5076789;27;46426;-76
2022/09/02 03:02:58;;;;;;;;;14.67;14.00;;;;;;;;5076983;27;45635;-79
2022/09/02 03:05:29;;;;;;;;;13.33;10.00;;;;;;;;5052119;28;45566;-77
2022/09/02 03:07:55;;;;;;;;;16.33;12.33;;;;;;;;5051839;28;45323;-77
2022/09/02 03:10:22;;;;;;;;;14.33;13.33;;;;;;;;5056246;27;45380;-75
2022/09/02 03:12:47;;;;;;;;;10.00;10.00;;;;;;;;5089822;27;45452;-77
2022/09/02 03:15:16;;;;;;;;;5.67;5.67;;;;;;;;5076602;27;45640;-77
2022/09/02 03:17:44;;;;;;;;;11.00;11.00;;;;;;;;5071991;27;45642;-78
2022/09/02 03:20:10;;;;;;;;;8.67;8.67;;;;;;;;5062927;28;45582;-78
2022/09/02 03:22:37;;;;;;;;;10.33;9.67;;;;;;;;5047639;27;45657;-78
2022/09/02 03:25:04;;;;;;;;;11.00;10.00;;;;;;;;5054032;28;45412;-78
2022/09/02 03:27:29;;;;;;;;;14.33;10.67;;;;;;;;5064384;27;45589;-78
2022/09/02 03:29:55;;;;;;;;;11.00;9.33;;;;;;;;5072094;27;45382;-79
2022/09/02 03:32:20;;;;;;;;;13.00;10.67;;;;;;;;5053470;28;45364;-77
2022/09/02 03:34:46;;;;;;;;;11.67;11.00;;;;;;;;5071070;27;45719;-77
2022/09/02 03:37:12;;;;;;;;;6.33;5.33;;;;;;;;5070810;27;45422;-78
2022/09/02 03:39:39;;;;;;;;;5.00;4.00;;;;;;;;5072341;28;45505;-78
2022/09/02 03:42:05;;;;;;;;;10.33;9.00;;;;;;;;5072446;27;46195;-78
2022/09/02 03:44:32;;;;;;;;;9.00;9.00;;;;;;;;5072792;28;45417;-77
2022/09/02 03:46:57;;;;;;;;;13.33;11.33;;;;;;;;5072007;27;45551;-77
2022/09/02 03:49:22;;;;;;;;;10.33;7.33;;;;;;;;5071009;27;45380;-78
2022/09/02 03:51:48;;;;;;;;;9.67;9.67;;;;;;;;5071374;27;45333;-78
2022/09/02 03:54:17;;;;;;;;;13.33;11.00;;;;;;;;5075197;27;45729;-78
2022/09/02 03:56:42;;;;;;;;;10.33;9.33;;;;;;;;5053535;28;45560;-76
2022/09/02 03:59:09;;;;;;;;;12.33;9.67;;;;;;;;5057785;28;45440;-77
2022/09/02 04:01:36;;;;;;;;;13.33;9.67;;;;;;;;5051677;28;45830;-79
2022/09/02 04:04:02;;;;;;;;;12.67;11.00;;;;;;;;5053091;28;45385;-79
2022/09/02 04:06:28;;;;;;;;;9.33;9.33;;;;;;;;5063978;28;45797;-77
2022/09/02 04:08:56;;;;;;;;;13.33;9.33;;;;;;;;5061723;28;45928;-77
2022/09/02 04:11:22;;;;;;;;;11.33;8.67;;;;;;;;5069042;27;45455;-77
2022/09/02 04:13:48;;;;;;;;;10.33;8.33;;;;;;;;5056178;27;45434;-76
2022/09/02 04:16:16;;;;;;;;;9.67;8.33;;;;;;;;5075059;27;45603;-76
2022/09/02 04:18:42;;;;;;;;;8.00;7.67;;;;;;;;5056236;28;47001;-75
2022/09/02 04:21:07;;;;;;;;;9.33;7.00;;;;;;;;5066869;27;45394;-77
2022/09/02 04:23:33;;;;;;;;;10.67;8.67;;;;;;;;5074819;27;45401;-79
2022/09/02 04:26:05;;;;;;;;;12.67;8.33;;;;;;;;5073483;27;45851;-78
2022/09/02 04:28:31;;;;;;;;;10.33;9.00;;;;;;;;5080571;27;45713;-77
2022/09/02 04:30:56;;;;;;;;;10.33;10.33;;;;;;;;5073738;27;45445;-78
2022/09/02 04:33:22;;;;;;;;;7.33;7.00;;;;;;;;5075765;27;45256;-77
2022/09/02 04:35:51;;;;;;;;;12.00;10.00;;;;;;;;5053702;28;45659;-79
2022/09/02 04:38:16;;;;;;;;;12.33;8.33;;;;;;;;5066376;27;46062;-76
2022/09/02 04:40:44;;;;;;;;;10.67;9.00;;;;;;;;5070559;27;45466;-76
2022/09/02 04:43:09;;;;;;;;;10.67;8.67;;;;;;;;5075273;27;45430;-76
2022/09/02 04:45:38;;;;;;;;;11.67;9.67;;;;;;;;5054590;28;45505;-76
2022/09/02 04:48:07;;;;;;;;;11.00;9.67;;;;;;;;5068109;27;45876;-78
2022/09/02 04:50:32;;;;;;;;;12.33;9.00;;;;;;;;5055207;27;45387;-78
2022/09/02 04:53:01;;;;;;;;;11.67;8.33;;;;;;;;5071007;27;45522;-77
2022/09/02 04:55:27;;;;;;;;;10.67;9.33;;;;;;;;5066754;27;45732;-78
2022/09/02 04:57:53;;;;;;;;;11.33;9.67;;;;;;;;5075030;27;46346;-78
2022/09/02 05:00:19;;;;;;;;;10.00;9.00;;;;;;;;5056803;27;45898;-77
2022/09/02 05:02:45;;;;;;;;;11.00;9.00;;;;;;;;5075470;27;45390;-78
2022/09/02 05:05:11;;;;;;;;;9.33;9.33;;;;;;;;5058181;27;46818;-78
2022/09/02 05:07:37;;;;;;;;;12.33;7.33;;;;;;;;5050339;28;47738;-77
2022/09/02 05:10:03;;;;;;;;;14.00;12.33;;;;;;;;5067748;27;45743;-76
2022/09/02 05:12:30;;;;;;;;;13.00;10.00;;;;;;;;5070074;27;45500;-75
2022/09/02 05:14:57;;;;;;;;;10.67;10.67;;;;;;;;5074505;27;45568;-78
2022/09/02 05:17:27;;;;;;;;;16.00;14.33;;;;;;;;5047103;28;46172;-82
2022/09/02 05:19:52;;;;;;;;;12.67;11.33;;;;;;;;5071930;27;45493;-73
2022/09/02 05:22:18;;;;;;;;;15.00;11.67;;;;;;;;5080426;27;45477;-76
2022/09/02 05:24:44;;;;;;;;;16.67;15.00;;;;;;;;5075283;27;45553;-75
2022/09/02 05:27:10;;;;;;;;;15.33;14.33;;;;;;;;5057895;28;45462;-78
2022/09/02 05:29:36;;;;;;;;;12.67;10.67;;;;;;;;5072827;27;45609;-80
2022/09/02 05:32:03;;;;;;;;;13.33;13.00;;;;;;;;5076705;27;45384;-78
2022/09/02 05:34:29;;;;;;;;;15.00;14.33;;;;;;;;5073155;27;45519;-78
2022/09/02 05:36:58;;;;;;;;;11.33;11.33;;;;;;;;5055888;27;46705;-78
2022/09/02 05:39:23;;;;;;;;;15.00;11.67;;;;;;;;5051213;28;45467;-78
2022/09/02 05:41:48;;;;;;;;;17.00;16.00;;;;;;;;5053884;28;45476;-78
2022/09/02 05:44:14;;;;;;;;;18.00;14.67;;;;;;;;5075228;27;45776;-80
2022/09/02 05:46:39;;;;;;;;;24.00;19.33;;;;;;;;5074407;28;47504;-78
2022/09/02 05:49:15;;;;;;;;;23.33;23.33;;;;;;;;5075036;27;45737;-78
2022/09/02 05:51:41;;;;;;;;;28.00;23.67;;;;;;;;5048290;28;45872;-80
2022/09/02 05:54:08;;;;;;;;;26.67;24.33;;;;;;;;5076040;27;45459;-81
2022/09/02 05:56:35;;;;;;;;;19.33;18.67;;;;;;;;5026443;28;45920;-81
2022/09/02 05:59:02;;;;;;;;;20.00;17.00;;;;;;;;5069882;27;45612;-80
2022/09/02 06:01:29;;;;;;;;;22.00;20.67;;;;;;;;5053471;28;45501;-81
2022/09/02 06:03:56;;;;;;;;;20.67;18.67;;;;;;;;5049619;28;46255;-79
2022/09/02 06:06:26;;;;;;;;;18.33;17.00;;;;;;;;5069363;27;48475;-79
2022/09/02 06:08:52;;;;;;;;;15.33;14.33;;;;;;;;5058233;27;45698;-80
2022/09/02 06:11:25;;;;;;;;;13.67;13.67;;;;;;;;5074762;27;45528;-82
2022/09/02 06:14:24;;;;;;;;;15.33;15.33;;;;;;;;5068415;27;45576;-81
2022/09/02 06:17:26;;;;;;;;;;;;;;;;;;;;;
2022/09/02 06:19:52;;;;;;;;;15.33;15.33;;;;;;;;5061479;28;73250;-84
2022/09/02 06:25:26;;;;;;;;;17.67;15.67;;;;;;;;5058496;28;45551;-82
2022/09/02 06:28:32;;;;;;;;;16.00;15.00;;;;;;;;5045490;28;45520;-83
2022/09/02 06:31:04;;;;;;;;;14.67;14.67;;;;;;;;5059957;28;45351;-80
2022/09/02 06:33:30;;;;;;;;;17.67;15.67;;;;;;;;5062009;27;45545;-79
2022/09/02 06:35:55;;;;;;;;;11.67;11.00;;;;;;;;5071114;28;45454;-79
2022/09/02 06:38:20;;;;;;;;;12.67;12.67;;;;;;;;5046713;27;46835;-78
2022/09/02 06:40:49;;;;;;;;;16.67;14.00;;;;;;;;5064171;28;45291;-81
2022/09/02 06:43:14;;;;;;;;;13.33;13.00;;;;;;;;5053428;28;45708;-84
2022/09/02 06:45:40;;;;;;;;;15.00;15.00;;;;;;;;5065024;27;45346;-78
2022/09/02 06:48:06;;;;;;;;;16.00;14.33;;;;;;;;5070042;27;45783;-80
2022/09/02 06:50:31;;;;;;;;;16.33;14.33;;;;;;;;5058237;28;45612;-77
2022/09/02 06:52:56;;;;;;;;;15.33;14.33;;;;;;;;5074965;27;45540;-77
2022/09/02 06:55:22;;;;;;;;;17.00;15.33;;;;;;;;5073000;27;45604;-77
2022/09/02 06:57:47;;;;;;;;;16.00;12.33;;;;;;;;5075449;27;45584;-77
2022/09/02 07:00:23;;;;;;;;;16.00;13.33;;;;;;;;5067285;27;45645;-81
2022/09/02 07:05:47;;;;;;;;;14.33;11.33;;;;;;;;5079913;27;45491;-82
2022/09/02 07:08:18;;;;;;;;;16.00;14.33;;;;;;;;5059672;28;45380;-81
2022/09/02 07:10:45;;;;;;;;;16.67;15.00;;;;;;;;5067363;27;45541;-81
2022/09/02 07:19:47;;;;;;;;;15.00;12.00;;;;;;;;5000445;28;45962;-81
2022/09/02 07:38:47;;;;;;;;;13.33;13.33;;;;;;;;4812121;29;45558;-81
2022/09/02 07:41:45;;;;;;;;;13.33;13.00;;;;;;;;4788759;29;45841;-79
2022/09/02 07:47:53;;;;;;;;;13.33;11.33;;;;;;;;4942425;28;46015;-78
2022/09/02 07:50:28;;;;;;;;;17.00;15.33;;;;;;;;4995257;28;45590;-78
2022/09/02 07:53:23;;;;;;;;;14.67;13.33;;;;;;;;5003321;28;45876;-78
2022/09/02 08:02:23;;;;;;;;;;;;;;;;;;;;;
2022/09/02 08:08:09;;;;;;;;;12.00;11.00;;;;;;;;5000223;28;45949;-78
2022/09/02 08:11:19;;;;;;;;;12.00;12.00;;;;;;;;4982649;28;45407;-78
2022/09/02 08:13:54;;;;;;;;;14.33;11.67;;;;;;;;5009283;28;45693;-77
2022/09/02 08:16:38;;;;;;;;;14.67;14.67;;;;;;;;5091021;27;45326;-79
2022/09/02 08:19:38;;;;;;;;;;;;;;;;;;;;;
2022/09/02 08:32:07;;;;;;;;;10.33;8.33;;;;;;;;5046707;28;45682;-78
2022/09/02 08:34:53;;;;;;;;;11.67;10.67;;;;;;;;5083041;27;46644;-79
2022/09/02 08:40:34;;;;;;;;;10.67;10.67;;;;;;;;5012276;28;44851;-78
2022/09/02 08:46:38;;;;;;;;;;;;;;;;;;;;;
2022/09/02 08:55:40;;;;;;;;;;;;;;;;;;;;;
2022/09/02 09:05:11;;;;;;;;;;;;;;;;;;;;;
2022/09/02 09:08:00;;;;;;;;;16.33;14.33;;;;;;;;4993695;28;74477;-79
2022/09/02 09:11:03;;;;;;;;;14.00;12.33;;;;;;;;5029076;28;45089;-77
2022/09/02 09:39:28;;;;;;;;;;;;;;;;;;;;;
2022/09/02 09:42:32;;;;;;;;;17.33;15.33;;;;;;;;5033845;28;73329;-81
2022/09/02 09:45:37;;;;;;;;;13.33;11.00;;;;;;;;5066905;28;45179;-81
2022/09/02 09:50:54;;;;;;;;;11.00;11.00;;;;;;;;5021986;28;45535;-72
2022/09/02 09:53:27;;;;;;;;;18.00;17.67;;;;;;;;5021194;28;45851;-73
2022/09/02 09:56:00;;;;;;;;;15.67;14.33;;;;;;;;5017313;28;48452;-71
2022/09/02 09:58:31;;;;;;;;;12.67;12.67;;;;;;;;5025714;28;45887;-72
2022/09/02 10:00:59;;;;;;;;;13.67;13.67;;;;;;;;5030985;28;45662;-73
2022/09/02 10:03:29;;;;;;;;;15.33;13.67;;;;;;;;5020379;28;45854;-73
2022/09/02 10:05:55;;;;;;;;;13.33;13.33;;;;;;;;5024097;28;45882;-72
2022/09/02 10:08:23;;;;;;;;;13.33;10.67;;;;;;;;5029596;28;45550;-71
2022/09/02 10:10:55;;;;;;;;;15.33;12.67;;;;;;;;5035419;28;45633;-71
2022/09/02 10:13:22;;;;;;;;;13.00;10.67;;;;;;;;5017132;28;46391;-70
2022/09/02 10:16:06;;;;;;;;;9.67;9.67;;;;;;;;5031374;28;46424;-73
2022/09/02 10:18:37;;;;;;;;;13.33;12.33;;;;;;;;5025139;28;46347;-71
2022/09/02 10:21:12;;;;;;;;;10.67;10.67;;;;;;;;5024364;28;45987;-70
2022/09/02 10:23:38;;;;;;;;;18.33;17.33;;;;;;;;5026148;28;45766;-70
2022/09/02 10:26:19;;;;;;;;;10.67;9.33;;;;;;;;5030558;28;45420;-71
2022/09/02 10:28:44;;;;;;;;;12.67;12.00;;;;;;;;5018867;28;45807;-71
2022/09/02 10:31:16;;;;;;;;;15.33;12.67;;;;;;;;5017077;28;46078;-72
2022/09/02 10:33:50;;;;;;;;;16.33;16.33;;;;;;;;5023589;28;45896;-71
2022/09/02 10:36:16;;;;;;;;;13.67;11.67;;;;;;;;5012480;28;46941;-72
2022/09/02 10:38:45;;;;;;;;;13.67;12.67;;;;;;;;5017206;28;46211;-69
2022/09/02 10:41:26;;;;;;;;;15.67;14.33;;;;;;;;5020897;28;45410;-69
2022/09/02 10:44:06;;;;;;;;;14.33;13.67;;;;;;;;5020346;28;45936;-69
2022/09/02 10:46:43;;;;;;;;;22.67;20.33;;;;;;;;5023218;28;45853;-72
2022/09/02 10:49:09;;;;;;;;;16.33;14.33;;;;;;;;5022264;28;46481;-70
2022/09/02 10:51:44;;;;;;;;;12.67;12.00;;;;;;;;5006201;28;45650;-73
2022/09/02 10:54:09;;;;;;;;;19.00;16.33;;;;;;;;5004504;28;45505;-70
2022/09/02 10:56:44;;;;;;;;;15.00;15.00;;;;;;;;5009751;28;46997;-70
2022/09/02 10:59:19;;;;;;;;;16.00;14.67;;;;;;;;5002952;28;45442;-70
2022/09/02 11:01:50;;;;;;;;;18.00;15.67;;;;;;;;5010002;28;45623;-69
2022/09/02 11:04:32;;;;;;;;;20.00;18.00;;;;;;;;5007154;28;45518;-69
2022/09/02 11:06:59;;;;;;;;;17.00;12.33;;;;;;;;4991371;28;45977;-70
2022/09/02 11:09:27;;;;;;;;;17.67;16.67;;;;;;;;5000333;28;45568;-69
2022/09/02 11:12:03;;;;;;;;;18.67;17.67;;;;;;;;5003438;28;46000;-70
2022/09/02 11:14:33;;;;;;;;;15.67;15.33;;;;;;;;4999037;28;45817;-71
2022/09/02 11:17:01;;;;;;;;;14.67;14.67;;;;;;;;5001104;28;46917;-70
2022/09/02 11:19:33;;;;;;;;;18.00;12.67;;;;;;;;5004549;28;45480;-70
2022/09/02 11:22:13;;;;;;;;;14.00;14.00;;;;;;;;5007145;28;45710;-71
2022/09/02 11:24:43;;;;;;;;;16.33;14.67;;;;;;;;5005810;28;45677;-71
2022/09/02 11:27:16;;;;;;;;;16.67;15.00;;;;;;;;4997708;28;46742;-70
2022/09/02 11:29:48;;;;;;;;;21.67;16.33;;;;;;;;4995254;28;45410;-70
2022/09/02 11:32:17;;;;;;;;;13.33;11.67;;;;;;;;4998876;28;45866;-70
2022/09/02 11:34:47;;;;;;;;;16.00;14.33;;;;;;;;5002671;28;45990;-71
2022/09/02 11:37:24;;;;;;;;;19.33;17.67;;;;;;;;5017963;28;46535;-70
2022/09/02 11:39:53;;;;;;;;;21.67;17.33;;;;;;;;4991132;28;45529;-69
2022/09/02 11:42:44;;;;;;;;;18.00;18.00;;;;;;;;4991375;28;45593;-70
2022/09/02 11:45:17;;;;;;;;;21.67;18.67;;;;;;;;4993846;28;45759;-70
2022/09/02 11:47:45;;;;;;;;;19.67;16.67;;;;;;;;4998521;28;46066;-72
2022/09/02 11:50:10;;;;;;;;;18.33;18.33;;;;;;;;5014763;28;45942;-72
2022/09/02 11:52:45;;;;;;;;;21.33;15.33;;;;;;;;5017960;28;45743;-71
2022/09/02 11:55:18;;;;;;;;;22.67;18.67;;;;;;;;5022739;28;45991;-70
2022/09/02 11:57:51;;;;;;;;;22.33;21.33;;;;;;;;5025597;28;45543;-73
2022/09/02 12:00:25;;;;;;;;;19.00;17.67;;;;;;;;5023001;28;45386;-72
2022/09/02 12:02:57;;;;;;;;;19.67;17.33;;;;;;;;5027737;28;45496;-71
2022/09/02 12:05:28;;;;;;;;;18.67;18.67;;;;;;;;5021257;28;45981;-71
2022/09/02 12:07:58;;;;;;;;;15.67;15.67;;;;;;;;5024286;28;45763;-72
2022/09/02 12:10:47;;;;;;;;;19.00;17.67;;;;;;;;5022478;28;45846;-71
2022/09/02 12:13:31;;;;;;;;;19.00;17.00;;;;;;;;5016302;28;45980;-71
2022/09/02 12:16:11;;;;;;;;;16.67;16.00;;;;;;;;5029819;28;45754;-73
2022/09/02 12:18:37;;;;;;;;;22.00;19.00;;;;;;;;5030906;28;45705;-71
2022/09/02 12:21:05;;;;;;;;;18.00;16.67;;;;;;;;5015829;28;45721;-72
2022/09/02 12:23:48;;;;;;;;;21.67;19.00;;;;;;;;5013433;28;45409;-70
2022/09/02 12:26:15;;;;;;;;;18.67;17.67;;;;;;;;5021555;28;45529;-72
2022/09/02 12:28:41;;;;;;;;;18.67;17.33;;;;;;;;5018680;28;45743;-71
2022/09/02 12:31:09;;;;;;;;;19.67;15.67;;;;;;;;5029355;28;45781;-71
2022/09/02 12:33:35;;;;;;;;;21.33;16.67;;;;;;;;5025684;28;45492;-72
2022/09/02 12:36:03;;;;;;;;;15.67;15.33;;;;;;;;5031485;28;45738;-70
2022/09/02 12:38:38;;;;;;;;;18.00;17.33;;;;;;;;5024597;28;45734;-72
2022/09/02 12:41:03;;;;;;;;;20.67;19.67;;;;;;;;5031896;28;45421;-69
2022/09/02 12:43:34;;;;;;;;;20.00;20.00;;;;;;;;5033957;28;45601;-70
2022/09/02 12:46:05;;;;;;;;;22.00;19.33;;;;;;;;5025833;28;45462;-70
2022/09/02 12:48:38;;;;;;;;;18.67;18.67;;;;;;;;5032564;28;45516;-72
2022/09/02 12:51:04;;;;;;;;;19.33;18.67;;;;;;;;5029090;28;45446;-74
2022/09/02 12:53:45;;;;;;;;;19.67;18.33;;;;;;;;5022781;28;45445;-71
2022/09/02 12:56:23;;;;;;;;;19.00;19.00;;;;;;;;5022469;28;45449;-71
2022/09/02 12:58:55;;;;;;;;;17.33;16.67;;;;;;;;5033133;28;46471;-72
2022/09/02 13:01:36;;;;;;;;;17.00;17.00;;;;;;;;5019123;28;46033;-72
2022/09/02 13:04:01;;;;;;;;;18.33;18.33;;;;;;;;5025121;28;45486;-71
2022/09/02 13:06:29;;;;;;;;;20.00;20.00;;;;;;;;5026709;28;45364;-73
2022/09/02 13:09:00;;;;;;;;;15.00;13.67;;;;;;;;5021455;28;45800;-71
2022/09/02 13:11:40;;;;;;;;;21.00;18.67;;;;;;;;5038617;28;45793;-72
2022/09/02 13:14:21;;;;;;;;;21.00;17.67;;;;;;;;5018846;28;45932;-72
2022/09/02 13:16:46;;;;;;;;;13.00;13.00;;;;;;;;5032531;28;45831;-71
2022/09/02 13:19:11;;;;;;;;;15.33;15.33;;;;;;;;5032810;28;46104;-71
2022/09/02 13:21:55;;;;;;;;;22.00;17.67;;;;;;;;5032267;28;45533;-70
2022/09/02 13:24:39;;;;;;;;;21.00;18.33;;;;;;;;5025623;28;45916;-70
2022/09/02 13:27:23;;;;;;;;;17.67;16.33;;;;;;;;5028415;28;46070;-70
2022/09/02 13:29:51;;;;;;;;;19.67;17.67;;;;;;;;5005955;28;47168;-70
2022/09/02 13:32:17;;;;;;;;;13.00;12.00;;;;;;;;5020070;28;45523;-69
2022/09/02 13:34:47;;;;;;;;;16.33;14.00;;;;;;;;5016199;28;45521;-72
2022/09/02 13:37:30;;;;;;;;;21.00;18.00;;;;;;;;5021187;28;45863;-70
2022/09/02 13:39:56;;;;;;;;;15.33;14.00;;;;;;;;5016870;28;47106;-69
2022/09/02 13:42:26;;;;;;;;;18.00;16.33;;;;;;;;5022537;28;45694;-71
2022/09/02 13:45:07;;;;;;;;;17.00;15.00;;;;;;;;5026592;28;45502;-71
2022/09/02 13:47:33;;;;;;;;;14.00;13.00;;;;;;;;5023943;28;45882;-71
2022/09/02 13:50:00;;;;;;;;;16.67;16.67;;;;;;;;5001179;28;48191;-71
2022/09/02 13:52:25;;;;;;;;;19.67;16.67;;;;;;;;5017781;28;45817;-72
2022/09/02 13:54:53;;;;;;;;;19.00;17.00;;;;;;;;5032992;28;45370;-72
2022/09/02 13:57:23;;;;;;;;;19.33;17.00;;;;;;;;5034256;28;45370;-73
2022/09/02 13:59:49;;;;;;;;;17.00;14.67;;;;;;;;5032521;28;48554;-73
2022/09/02 14:02:31;;;;;;;;;17.67;17.00;;;;;;;;5036095;28;45721;-72
2022/09/02 14:05:18;;;;;;;;;15.33;15.00;;;;;;;;5026001;28;45548;-70
2022/09/02 14:07:46;;;;;;;;;20.00;18.00;;;;;;;;5004230;28;46729;-71
2022/09/02 14:10:16;;;;;;;;;14.67;14.67;;;;;;;;5017491;28;45718;-70
2022/09/02 14:12:41;;;;;;;;;17.33;16.33;;;;;;;;5015069;28;45532;-70
2022/09/02 14:15:09;;;;;;;;;20.33;17.33;;;;;;;;5022217;28;45434;-70
2022/09/02 14:17:34;;;;;;;;;18.00;17.33;;;;;;;;5018045;28;45450;-71
2022/09/02 14:20:15;;;;;;;;;20.00;20.00;;;;;;;;5022666;28;45956;-70
2022/09/02 14:22:41;;;;;;;;;18.67;14.33;;;;;;;;5015464;28;45463;-70
2022/09/02 14:25:13;;;;;;;;;17.67;15.33;;;;;;;;5017678;28;45509;-73
2022/09/02 14:27:39;;;;;;;;;17.00;13.67;;;;;;;;4994964;28;47756;-71
2022/09/02 14:30:08;;;;;;;;;19.00;16.33;;;;;;;;5011784;28;46081;-71
2022/09/02 14:32:33;;;;;;;;;17.33;15.00;;;;;;;;5020603;28;45476;-69
2022/09/02 14:35:17;;;;;;;;;18.00;14.33;;;;;;;;5015821;28;46045;-67
2022/09/02 14:37:56;;;;;;;;;18.67;16.00;;;;;;;;5018706;28;45822;-68
2022/09/02 14:40:39;;;;;;;;;22.33;16.33;;;;;;;;5027933;28;45595;-65
2022/09/02 14:43:11;;;;;;;;;15.67;14.33;;;;;;;;5019595;28;45659;-66
2022/09/02 14:45:36;;;;;;;;;14.67;13.00;;;;;;;;5024225;28;45877;-65
2022/09/02 14:48:09;;;;;;;;;17.00;14.33;;;;;;;;5019864;28;45794;-67
2022/09/02 14:50:37;;;;;;;;;15.33;14.33;;;;;;;;5011924;28;45899;-67
2022/09/02 14:53:07;;;;;;;;;21.00;16.33;;;;;;;;5025415;28;46236;-66
2022/09/02 14:55:52;;;;;;;;;16.67;14.33;;;;;;;;5013847;28;45404;-66
2022/09/02 14:58:19;;;;;;;;;14.67;9.33;;;;;;;;5023911;28;45529;-69
2022/09/02 15:00:50;;;;;;;;;10.00;8.33;;;;;;;;5024720;28;46846;-67
2022/09/02 15:03:16;;;;;;;;;8.00;8.00;;;;;;;;5019439;28;45764;-67
2022/09/02 15:05:42;;;;;;;;;8.00;8.00;;;;;;;;5023796;28;45626;-66
2022/09/02 15:08:08;;;;;;;;;9.67;8.67;;;;;;;;5021251;28;45399;-67
2022/09/02 15:10:34;;;;;;;;;9.00;9.00;;;;;;;;5017620;28;46995;-64
2022/09/02 15:12:59;;;;;;;;;5.33;5.33;;;;;;;;5024072;28;45692;-65
2022/09/02 15:15:26;;;;;;;;;6.33;6.33;;;;;;;;5024668;28;45735;-68
2022/09/02 15:17:51;;;;;;;;;5.00;5.00;;;;;;;;5008666;28;45847;-66
2022/09/02 15:20:16;;;;;;;;;7.67;6.33;;;;;;;;5025352;28;46789;-65
2022/09/02 15:22:42;;;;;;;;;4.67;4.67;;;;;;;;5022279;28;45666;-65
2022/09/02 15:25:07;;;;;;;;;5.67;5.67;;;;;;;;5027784;28;45767;-65
2022/09/02 15:27:33;;;;;;;;;5.33;4.67;;;;;;;;5016513;28;45986;-65
2022/09/02 15:29:58;;;;;;;;;8.00;8.00;;;;;;;;5012716;28;46628;-65
2022/09/02 15:32:25;;;;;;;;;4.33;4.33;;;;;;;;5028868;28;45494;-65
2022/09/02 15:34:50;;;;;;;;;6.00;5.00;;;;;;;;5028959;28;45620;-65
2022/09/02 15:37:15;;;;;;;;;5.25;5.00;;;;;;;;5032275;28;45459;-64
2022/09/02 15:39:41;;;;;;;;;6.00;6.00;;;;;;;;5011450;28;48440;-64
2022/09/02 15:42:06;;;;;;;;;5.33;5.33;;;;;;;;5029511;28;46093;-65
2022/09/02 15:44:31;;;;;;;;;5.33;5.33;;;;;;;;5026313;28;45414;-67
2022/09/02 15:46:57;;;;;;;;;5.33;4.67;;;;;;;;5027441;28;45901;-67
2022/09/02 15:49:22;;;;;;;;;6.00;6.00;;;;;;;;5019194;28;46206;-68
2022/09/02 15:51:48;;;;;;;;;4.67;4.67;;;;;;;;5025382;28;45747;-66
2022/09/02 15:54:15;;;;;;;;;6.00;5.00;;;;;;;;5019374;28;45793;-64
2022/09/02 15:56:41;;;;;;;;;4.00;4.00;;;;;;;;5026734;28;45814;-66
2022/09/02 15:59:11;;;;;;;;;5.25;4.00;;;;;;;;5041392;28;46616;-66
2022/09/02 16:01:41;;;;;;;;;4.00;4.00;;;;;;;;5037634;28;45771;-66
2022/09/02 16:04:07;;;;;;;;;5.00;5.00;;;;;;;;5033227;28;45888;-67
2022/09/02 16:06:34;;;;;;;;;5.33;5.33;;;;;;;;5048341;28;45882;-66
2022/09/02 16:09:00;;;;;;;;;4.67;4.67;;;;;;;;5026216;28;47274;-67
2022/09/02 16:11:25;;;;;;;;;3.33;3.33;;;;;;;;5024832;28;45769;-66
2022/09/02 16:13:50;;;;;;;;;4.50;3.25;;;;;;;;5042067;28;45620;-65
2022/09/02 16:16:16;;;;;;;;;7.33;5.00;;;;;;;;5049025;28;45817;-65
2022/09/02 16:18:41;;;;;;;;;4.67;4.67;;;;;;;;5043879;28;46702;-64
2022/09/02 16:21:09;;;;;;;;;4.33;4.33;;;;;;;;5046567;28;45759;-64
2022/09/02 16:23:34;;;;;;;;;3.00;3.00;;;;;;;;5045074;28;45805;-67
2022/09/02 16:26:05;;;;;;;;;4.33;3.33;;;;;;;;5043624;28;45745;-66
2022/09/02 16:28:41;;;;;;;;;6.00;6.00;;;;;;;;5046964;28;45689;-67
2022/09/02 16:31:08;;;;;;;;;8.67;6.00;;;;;;;;5035312;28;45494;-65
2022/09/02 16:33:34;;;;;;;;;5.00;5.00;;;;;;;;5031514;28;45746;-65
2022/09/02 16:35:59;;;;;;;;;5.00;4.00;;;;;;;;5049503;28;46291;-66
2022/09/02 16:38:25;;;;;;;;;6.33;5.00;;;;;;;;5047342;28;46562;-67
2022/09/02 16:40:51;;;;;;;;;6.00;6.00;;;;;;;;5041611;28;45401;-66
2022/09/02 16:43:16;;;;;;;;;7.33;7.33;;;;;;;;5045349;28;45493;-66
2022/09/02 16:45:41;;;;;;;;;5.33;5.33;;;;;;;;5020211;28;45856;-66
2022/09/02 16:48:07;;;;;;;;;7.00;7.00;;;;;;;;5039921;28;45756;-66